createdAt,value
2022-09-25T00:00:59.566Z,15.20
2022-09-25T00:03:28.156Z,15.20
2022-09-25T00:06:01.267Z,15.10
2022-09-25T00:08:28.378Z,15.10
2022-09-25T00:10:55.627Z,15.00
2022-09-25T00:13:23.077Z,14.90
2022-09-25T00:15:56.886Z,14.90
2022-09-25T00:18:43.108Z,14.90
2022-09-25T00:21:12.781Z,14.90
2022-09-25T00:23:40.557Z,14.80
2022-09-25T00:26:08.406Z,14.70
2022-09-25T00:28:36.507Z,14.70
2022-09-25T00:31:04.989Z,14.70
2022-09-25T00:33:32.908Z,14.70
2022-09-25T00:36:07.315Z,14.70
2022-09-25T00:38:35.315Z,14.70
2022-09-25T00:41:02.770Z,14.70
2022-09-25T00:43:44.752Z,14.70
2022-09-25T00:46:13.795Z,14.70
2022-09-25T00:48:50.406Z,14.70
2022-09-25T00:51:18.966Z,14.70
2022-09-25T00:53:46.205Z,14.70
2022-09-25T00:56:13.685Z,14.60
2022-09-25T00:58:41.217Z,14.60
2022-09-25T01:01:09.303Z,14.60
2022-09-25T01:03:36.577Z,14.60
2022-09-25T01:06:03.755Z,14.50
2022-09-25T01:08:32.005Z,14.50
2022-09-25T01:10:59.287Z,14.50
2022-09-25T01:13:26.731Z,14.50
2022-09-25T01:16:06.305Z,14.50
2022-09-25T01:18:33.677Z,14.50
2022-09-25T01:21:00.645Z,14.30
2022-09-25T01:23:27.733Z,14.30
2022-09-25T01:26:15.776Z,14.30
2022-09-25T01:28:47.987Z,14.30
2022-09-25T01:31:18.274Z,14.30
2022-09-25T01:33:50.586Z,14.20
2022-09-25T01:36:23.722Z,14.10
2022-09-25T01:38:52.325Z,14.00
2022-09-25T01:41:22.757Z,14.00
2022-09-25T01:44:13.672Z,13.70
2022-09-25T01:46:42.916Z,13.50
2022-09-25T01:49:30.238Z,13.20
2022-09-25T01:51:58.775Z,13.10
2022-09-25T01:54:32.835Z,13.10
2022-09-25T01:56:59.879Z,13.10
2022-09-25T01:59:45.655Z,13.00
2022-09-25T02:02:13.950Z,13.00
2022-09-25T02:04:43.159Z,13.10
2022-09-25T02:07:10.975Z,13.30
2022-09-25T02:09:43.438Z,13.40
2022-09-25T02:12:13.197Z,13.60
2022-09-25T02:15:06.706Z,13.70
2022-09-25T02:18:12.775Z,13.70
2022-09-25T02:20:42.526Z,13.80
2022-09-25T02:23:27.475Z,13.80
2022-09-25T02:26:04.774Z,13.80
2022-09-25T02:28:32.046Z,13.70
2022-09-25T02:31:00.436Z,13.70
2022-09-25T02:33:27.596Z,13.60
2022-09-25T02:35:54.737Z,13.60
2022-09-25T02:38:21.857Z,13.50
2022-09-25T02:40:52.628Z,13.40
2022-09-25T02:43:38.615Z,13.40
2022-09-25T02:46:05.698Z,13.40
2022-09-25T02:48:39.038Z,13.40
2022-09-25T02:51:12.435Z,13.40
2022-09-25T02:53:48.987Z,13.40
2022-09-25T02:56:38.578Z,13.40
2022-09-25T02:59:18.455Z,13.40
2022-09-25T03:01:47.113Z,13.50
2022-09-25T03:04:16.219Z,13.50
2022-09-25T03:06:43.655Z,13.40
2022-09-25T03:09:11.085Z,13.40
2022-09-25T03:11:42.375Z,13.40
2022-09-25T03:14:09.979Z,13.30
2022-09-25T03:16:46.776Z,13.30
2022-09-25T03:19:14.366Z,13.20
2022-09-25T03:21:41.327Z,13.30
2022-09-25T03:24:09.148Z,13.30
2022-09-25T03:26:36.255Z,13.30
2022-09-25T03:29:03.776Z,13.20
2022-09-25T03:31:30.945Z,13.30
2022-09-25T03:33:58.439Z,13.30
2022-09-25T03:36:26.935Z,13.30
2022-09-25T03:38:58.005Z,13.30
2022-09-25T03:41:26.956Z,13.20
2022-09-25T03:43:54.145Z,13.20
2022-09-25T03:46:22.593Z,13.20
2022-09-25T03:48:49.996Z,13.10
2022-09-25T03:51:17.065Z,13.10
2022-09-25T03:53:44.176Z,13.10
2022-09-25T03:56:12.637Z,13.10
2022-09-25T03:58:40.267Z,13.10
2022-09-25T04:01:07.469Z,13.10
2022-09-25T04:03:34.724Z,13.20
2022-09-25T04:06:04.795Z,13.10
2022-09-25T04:08:32.888Z,13.10
2022-09-25T04:11:00.450Z,13.10
2022-09-25T04:13:30.135Z,13.10
2022-09-25T04:15:57.938Z,13.10
2022-09-25T04:18:25.601Z,13.10
2022-09-25T04:20:52.681Z,13.00
2022-09-25T04:23:20.371Z,13.00
2022-09-25T04:25:47.491Z,12.90
2022-09-25T04:28:14.538Z,12.80
2022-09-25T04:30:41.640Z,12.70
2022-09-25T04:33:28.021Z,12.70
2022-09-25T04:35:55.081Z,12.70
2022-09-25T04:38:22.129Z,12.70
2022-09-25T04:40:49.271Z,12.70
2022-09-25T04:43:16.361Z,12.70
2022-09-25T04:45:43.590Z,12.70
2022-09-25T04:48:10.704Z,12.70
2022-09-25T04:50:37.821Z,12.80
2022-09-25T04:53:05.110Z,12.80
2022-09-25T04:55:32.441Z,12.80
2022-09-25T04:58:03.626Z,12.80
2022-09-25T05:00:33.629Z,12.80
2022-09-25T05:03:02.721Z,12.80
2022-09-25T05:05:30.683Z,12.80
2022-09-25T05:08:03.878Z,12.80
2022-09-25T05:10:32.082Z,12.80
2022-09-25T05:13:03.078Z,12.70
2022-09-25T05:15:31.880Z,12.60
2022-09-25T05:18:06.268Z,12.60
2022-09-25T05:20:35.015Z,12.50
2022-09-25T05:23:05.056Z,12.50
2022-09-25T05:25:33.699Z,12.50
2022-09-25T05:28:01.329Z,12.60
2022-09-25T05:30:29.937Z,12.50
2022-09-25T05:32:59.877Z,12.50
2022-09-25T05:35:33.420Z,12.50
2022-09-25T05:38:03.056Z,12.50
2022-09-25T05:40:30.111Z,12.50
2022-09-25T05:42:57.238Z,12.40
2022-09-25T05:45:24.290Z,12.40
2022-09-25T05:48:04.364Z,12.40
2022-09-25T05:50:34.551Z,12.40
2022-09-25T05:53:02.497Z,12.40
2022-09-25T05:55:35.277Z,12.30
2022-09-25T05:58:02.940Z,12.20
2022-09-25T06:00:32.962Z,12.10
2022-09-25T06:03:02.667Z,12.00
2022-09-25T06:05:30.294Z,12.00
2022-09-25T06:07:57.427Z,12.00
2022-09-25T06:10:26.871Z,11.90
2022-09-25T06:12:59.046Z,11.70
2022-09-25T06:15:30.038Z,11.60
2022-09-25T06:17:58.986Z,11.60
2022-09-25T06:20:26.027Z,11.70
2022-09-25T06:23:05.536Z,11.80
2022-09-25T06:25:38.550Z,11.90
2022-09-25T06:28:06.307Z,12.00
2022-09-25T06:30:34.633Z,12.10
2022-09-25T06:33:08.547Z,12.20
2022-09-25T06:35:36.418Z,12.20
2022-09-25T06:38:04.007Z,12.30
2022-09-25T06:40:31.716Z,12.40
2022-09-25T06:42:59.516Z,12.40
2022-09-25T06:45:27.658Z,12.40
2022-09-25T06:47:58.059Z,12.40
2022-09-25T06:53:13.317Z,12.50
2022-09-25T06:55:40.797Z,12.50
2022-09-25T06:58:10.349Z,12.60
2022-09-25T07:00:37.317Z,12.50
2022-09-25T07:03:23.018Z,12.40
2022-09-25T07:05:50.077Z,12.40
2022-09-25T07:08:17.727Z,12.40
2022-09-25T07:10:51.647Z,12.40
2022-09-25T07:13:20.917Z,12.40
2022-09-25T07:15:51.922Z,12.50
2022-09-25T07:18:19.047Z,12.60
2022-09-25T07:20:49.518Z,12.70
2022-09-25T07:23:17.887Z,12.80
2022-09-25T07:25:47.687Z,12.90
2022-09-25T07:28:15.961Z,13.00
2022-09-25T07:30:46.222Z,13.00
2022-09-25T07:33:13.297Z,13.10
2022-09-25T07:35:40.350Z,13.20
2022-09-25T07:38:07.446Z,13.30
2022-09-25T07:40:35.615Z,13.30
2022-09-25T07:43:03.127Z,13.30
2022-09-25T07:45:30.770Z,13.40
2022-09-25T07:47:58.496Z,13.60
2022-09-25T07:50:25.507Z,13.70
2022-09-25T07:52:54.738Z,13.80
2022-09-25T07:55:22.371Z,14.00
2022-09-25T07:57:50.727Z,14.10
2022-09-25T08:00:18.187Z,14.30
2022-09-25T08:02:45.276Z,14.50
2022-09-25T08:05:12.490Z,14.80
2022-09-25T08:07:39.558Z,15.00
2022-09-25T08:10:08.940Z,15.30
2022-09-25T08:12:39.678Z,15.50
2022-09-25T08:15:07.577Z,15.70
2022-09-25T08:17:34.647Z,15.80
2022-09-25T08:20:02.020Z,15.80
2022-09-25T08:22:32.557Z,15.70
2022-09-25T08:25:00.678Z,15.50
2022-09-25T08:27:27.877Z,15.60
2022-09-25T08:29:54.927Z,15.70
2022-09-25T08:32:21.978Z,16.00
2022-09-25T08:34:49.550Z,16.10
2022-09-25T08:37:17.296Z,16.30
2022-09-25T08:39:44.347Z,16.50
2022-09-25T08:42:24.497Z,16.50
2022-09-25T08:45:21.562Z,16.50
2022-09-25T08:48:12.976Z,16.50
2022-09-25T08:50:42.207Z,16.70
2022-09-25T08:53:14.579Z,17.00
2022-09-25T08:56:00.626Z,17.30
2022-09-25T08:58:31.850Z,17.60
2022-09-25T09:01:03.833Z,17.80
2022-09-25T09:03:32.368Z,17.80
2022-09-25T09:06:04.824Z,17.90
2022-09-25T09:08:33.646Z,18.20
2022-09-25T09:11:03.047Z,18.30
2022-09-25T09:17:00.547Z,18.50
2022-09-25T09:19:27.678Z,18.60
2022-09-25T09:22:02.227Z,18.60
2022-09-25T09:27:53.067Z,18.40
2022-09-25T09:30:40.358Z,18.00
2022-09-25T09:33:13.899Z,17.70
2022-09-25T09:35:49.717Z,17.40
2022-09-25T09:38:28.728Z,17.20
2022-09-25T09:41:02.169Z,17.20
2022-09-25T09:43:39.248Z,17.20
2022-09-25T09:46:14.112Z,17.50
2022-09-25T09:48:45.977Z,17.50
2022-09-25T09:51:25.006Z,17.90
2022-09-25T09:53:54.302Z,18.20
2022-09-25T09:56:28.435Z,17.90
2022-09-25T09:58:58.568Z,17.80
2022-09-25T10:01:43.021Z,17.70
2022-09-25T10:04:11.852Z,17.70
2022-09-25T10:06:40.138Z,18.30
2022-09-25T10:12:10.307Z,18.30
2022-09-25T10:14:39.649Z,18.20
2022-09-25T10:17:07.427Z,18.00
2022-09-25T10:20:01.158Z,17.90
2022-09-25T10:22:32.143Z,17.80
2022-09-25T10:27:49.080Z,17.70
2022-09-25T10:33:31.447Z,17.90
2022-09-25T10:36:01.307Z,18.10
2022-09-25T10:38:36.913Z,18.20
2022-09-25T10:41:13.048Z,18.30
2022-09-25T10:43:56.230Z,18.30
2022-09-25T10:46:46.298Z,18.40
2022-09-25T10:49:37.283Z,18.50
2022-09-25T10:52:08.464Z,18.50
2022-09-25T10:54:40.323Z,18.40
2022-09-25T10:57:18.319Z,18.40
2022-09-25T10:59:50.376Z,18.80
2022-09-25T11:02:25.257Z,18.90
2022-09-25T11:04:53.373Z,19.10
2022-09-25T11:07:24.986Z,19.20
2022-09-25T11:09:55.207Z,19.50
2022-09-25T11:12:27.597Z,19.80
2022-09-25T11:14:58.746Z,20.10
2022-09-25T11:17:39.423Z,20.40
2022-09-25T11:20:22.537Z,20.70
2022-09-25T11:23:21.686Z,20.50
2022-09-25T11:25:53.936Z,20.60
2022-09-25T11:28:29.066Z,20.60
2022-09-25T11:30:59.295Z,20.70
2022-09-25T11:33:35.537Z,20.60
2022-09-25T11:36:17.945Z,20.30
2022-09-25T11:39:07.582Z,20.00
2022-09-25T11:41:53.584Z,19.70
2022-09-25T11:44:34.387Z,19.60
2022-09-25T11:47:08.535Z,19.50
2022-09-25T11:49:38.168Z,19.40
2022-09-25T11:52:20.459Z,19.40
2022-09-25T11:54:50.689Z,19.40
2022-09-25T11:57:23.358Z,19.40
2022-09-25T11:59:50.396Z,19.40
2022-09-25T12:02:21.807Z,19.50
2022-09-25T12:04:56.225Z,19.60
2022-09-25T12:07:29.364Z,19.70
2022-09-25T12:10:08.614Z,19.70
2022-09-25T12:12:41.846Z,19.70
2022-09-25T12:15:11.817Z,19.70
2022-09-25T12:17:57.315Z,19.70
2022-09-25T12:20:27.516Z,19.70
2022-09-25T12:23:03.887Z,19.50
2022-09-25T12:25:44.335Z,19.50
2022-09-25T12:28:20.415Z,19.50
2022-09-25T12:31:06.305Z,19.60
2022-09-25T12:33:38.941Z,19.90
2022-09-25T12:36:09.142Z,20.00
2022-09-25T12:38:38.727Z,20.00
2022-09-25T12:41:12.986Z,20.10
2022-09-25T12:43:46.355Z,20.20
2022-09-25T12:46:20.674Z,20.10
2022-09-25T12:48:51.527Z,20.20
2022-09-25T12:51:25.215Z,20.20
2022-09-25T12:53:59.407Z,20.30
2022-09-25T12:56:30.470Z,20.20
2022-09-25T12:59:01.155Z,20.30
2022-09-25T13:01:34.560Z,20.30
2022-09-25T13:04:35.441Z,20.40
2022-09-25T13:07:23.716Z,20.50
2022-09-25T13:09:50.767Z,20.70
2022-09-25T13:12:26.794Z,20.60
2022-09-25T13:14:56.596Z,20.60
2022-09-25T13:17:24.265Z,20.50
2022-09-25T13:19:51.395Z,20.40
2022-09-25T13:22:25.555Z,20.30
2022-09-25T13:25:02.786Z,20.20
2022-09-25T13:27:37.520Z,20.10
2022-09-25T13:30:05.303Z,20.10
2022-09-25T13:32:36.187Z,20.20
2022-09-25T13:35:04.968Z,20.30
2022-09-25T13:37:34.875Z,20.40
2022-09-25T13:40:26.107Z,20.40
2022-09-25T13:42:53.338Z,20.50
2022-09-25T13:45:30.057Z,20.70
2022-09-25T13:47:57.240Z,20.80
2022-09-25T13:50:28.634Z,20.90
2022-09-25T13:53:17.751Z,21.00
2022-09-25T13:55:50.638Z,21.00
2022-09-25T13:58:20.805Z,20.90
2022-09-25T14:00:55.915Z,21.00
2022-09-25T14:03:32.355Z,21.00
2022-09-25T14:05:59.965Z,21.00
2022-09-25T14:08:28.196Z,21.00
2022-09-25T14:10:57.316Z,21.00
2022-09-25T14:13:25.959Z,20.80
2022-09-25T14:15:55.222Z,20.80
2022-09-25T14:18:22.281Z,20.80
2022-09-25T14:20:50.735Z,20.90
2022-09-25T14:23:20.566Z,20.80
2022-09-25T14:25:58.318Z,20.80
2022-09-25T14:28:33.237Z,20.90
2022-09-25T14:31:15.540Z,20.90
2022-09-25T14:33:49.339Z,21.00
2022-09-25T14:36:25.805Z,21.00
2022-09-25T14:39:08.061Z,21.00
2022-09-25T14:41:47.743Z,21.00
2022-09-25T14:44:18.486Z,21.10
2022-09-25T14:46:49.108Z,21.10
2022-09-25T14:49:30.585Z,21.00
2022-09-25T14:52:00.515Z,20.80
2022-09-25T14:54:29.965Z,20.80
2022-09-25T14:56:57.625Z,20.70
2022-09-25T14:59:39.905Z,20.50
2022-09-25T15:02:15.965Z,20.40
2022-09-25T15:04:43.156Z,20.20
2022-09-25T15:07:17.724Z,20.00
2022-09-25T15:09:48.642Z,19.90
2022-09-25T15:12:29.495Z,19.80
2022-09-25T15:15:06.708Z,19.70
2022-09-25T15:17:37.585Z,19.50
2022-09-25T15:20:07.981Z,19.40
2022-09-25T15:22:38.816Z,19.20
2022-09-25T15:25:07.976Z,19.10
2022-09-25T15:27:37.164Z,19.10
2022-09-25T15:30:05.315Z,19.10
2022-09-25T15:32:38.475Z,19.20
2022-09-25T15:35:17.519Z,19.20
2022-09-25T15:37:45.396Z,19.20
2022-09-25T15:40:30.561Z,19.20
2022-09-25T15:42:59.187Z,19.10
2022-09-25T15:45:29.429Z,19.10
2022-09-25T15:47:56.586Z,19.00
2022-09-25T15:50:25.254Z,19.00
2022-09-25T15:52:53.655Z,18.90
2022-09-25T15:55:21.114Z,18.80
2022-09-25T15:57:49.407Z,18.80
2022-09-25T16:00:36.829Z,18.90
2022-09-25T16:03:31.775Z,19.00
2022-09-25T16:06:01.115Z,19.10
2022-09-25T16:08:30.065Z,19.20
2022-09-25T16:11:05.069Z,19.20
2022-09-25T16:13:32.957Z,19.20
2022-09-25T16:16:00.850Z,19.10
2022-09-25T16:18:40.525Z,19.00
2022-09-25T16:21:13.443Z,18.90
2022-09-25T16:23:42.566Z,18.90
2022-09-25T16:26:22.359Z,18.80
2022-09-25T16:28:58.699Z,18.80
2022-09-25T16:31:25.969Z,18.80
2022-09-25T16:33:56.154Z,18.70
2022-09-25T16:36:24.127Z,18.70
2022-09-25T16:39:03.582Z,18.70
2022-09-25T16:41:30.907Z,18.60
2022-09-25T16:44:21.165Z,18.50
2022-09-25T16:46:52.359Z,18.60
2022-09-25T16:49:22.617Z,18.50
2022-09-25T16:51:50.585Z,18.40
2022-09-25T16:54:18.925Z,18.50
2022-09-25T16:56:48.275Z,18.40
2022-09-25T16:59:18.737Z,18.40
2022-09-25T17:01:47.043Z,18.40
2022-09-25T17:04:15.821Z,18.30
2022-09-25T17:06:45.944Z,18.30
2022-09-25T17:09:14.445Z,18.20
2022-09-25T17:11:44.504Z,18.30
2022-09-25T17:14:20.446Z,18.20
2022-09-25T17:16:47.456Z,18.20
2022-09-25T17:19:18.156Z,18.20
2022-09-25T17:21:51.499Z,18.20
2022-09-25T17:24:20.400Z,18.20
2022-09-25T17:26:47.435Z,18.20
2022-09-25T17:29:14.585Z,18.10
2022-09-25T17:31:41.735Z,18.10
2022-09-25T17:34:19.315Z,18.10
2022-09-25T17:36:46.376Z,18.10
2022-09-25T17:39:13.748Z,18.10
2022-09-25T17:41:41.169Z,18.20
2022-09-25T17:44:11.135Z,18.20
2022-09-25T17:46:39.055Z,18.20
2022-09-25T17:49:06.245Z,18.30
2022-09-25T17:51:33.396Z,18.30
2022-09-25T17:54:02.444Z,18.20
2022-09-25T17:56:34.915Z,18.20
2022-09-25T17:59:02.646Z,18.20
2022-09-25T18:01:34.246Z,18.20
2022-09-25T18:04:13.364Z,18.10
2022-09-25T18:06:43.494Z,18.10
2022-09-25T18:09:10.777Z,18.10
2022-09-25T18:11:42.497Z,18.10
2022-09-25T18:14:13.225Z,18.00
2022-09-25T18:16:41.934Z,18.10
2022-09-25T18:19:34.904Z,18.10
2022-09-25T18:22:17.833Z,18.10
2022-09-25T18:24:45.879Z,18.10
2022-09-25T18:27:13.765Z,18.20
2022-09-25T18:29:40.943Z,18.20
2022-09-25T18:32:08.326Z,18.10
2022-09-25T18:34:35.365Z,18.20
2022-09-25T18:37:02.435Z,18.10
2022-09-25T18:39:30.594Z,18.10
2022-09-25T18:41:57.751Z,18.20
2022-09-25T18:47:06.495Z,18.10
2022-09-25T18:49:33.505Z,18.00
2022-09-25T18:52:00.556Z,18.00
2022-09-25T18:54:29.200Z,18.10
2022-09-25T18:56:58.693Z,18.00
2022-09-25T18:59:26.731Z,18.10
2022-09-25T19:01:55.978Z,18.00
2022-09-25T19:04:23.332Z,18.00
2022-09-25T19:09:31.238Z,17.90
2022-09-25T19:14:39.264Z,17.90
2022-09-25T19:17:06.354Z,17.90
2022-09-25T19:19:35.166Z,17.90
2022-09-25T19:22:02.355Z,17.90
2022-09-25T19:24:30.855Z,17.90
2022-09-25T19:26:57.943Z,17.90
2022-09-25T19:29:25.215Z,17.80
2022-09-25T19:31:52.215Z,17.90
2022-09-25T19:34:19.286Z,17.80
2022-09-25T19:36:46.445Z,17.80
2022-09-25T19:39:13.593Z,17.70
2022-09-25T19:41:41.393Z,17.70
2022-09-25T19:44:13.447Z,17.60
2022-09-25T19:46:42.175Z,17.60
2022-09-25T19:49:10.034Z,17.50
2022-09-25T19:51:37.869Z,17.40
2022-09-25T19:54:05.414Z,17.30
2022-09-25T19:56:32.507Z,17.30
2022-09-25T19:58:59.658Z,17.20
2022-09-25T20:01:27.784Z,17.20
2022-09-25T20:03:58.428Z,17.10
2022-09-25T20:06:26.646Z,17.00
2022-09-25T20:09:03.394Z,16.90
2022-09-25T20:11:31.224Z,16.80
2022-09-25T20:13:58.546Z,16.70
2022-09-25T20:16:27.321Z,16.60
2022-09-25T20:18:56.564Z,16.60
2022-09-25T20:21:24.562Z,16.60
2022-09-25T20:23:52.316Z,16.50
2022-09-25T20:26:20.054Z,16.50
2022-09-25T20:28:50.934Z,16.50
2022-09-25T20:31:18.103Z,16.50
2022-09-25T20:33:45.247Z,16.50
2022-09-25T20:36:13.234Z,16.40
2022-09-25T20:38:40.476Z,16.40
2022-09-25T20:41:09.625Z,16.40
2022-09-25T20:43:37.154Z,16.40
2022-09-25T20:46:12.670Z,16.30
2022-09-25T20:48:41.075Z,16.30
2022-09-25T20:51:09.972Z,16.10
2022-09-25T20:53:37.685Z,16.00
2022-09-25T20:56:09.424Z,15.90
2022-09-25T20:58:37.474Z,15.90
2022-09-25T21:01:06.358Z,15.80
2022-09-25T21:03:35.015Z,15.70
2022-09-25T21:06:02.915Z,15.60
2022-09-25T21:08:31.295Z,15.60
2022-09-25T21:11:02.267Z,15.70
2022-09-25T21:16:14.756Z,15.80
2022-09-25T21:18:42.478Z,15.80
2022-09-25T21:21:10.854Z,15.70
2022-09-25T21:23:38.235Z,15.70
2022-09-25T21:26:06.716Z,15.70
2022-09-25T21:28:34.257Z,15.70
2022-09-25T21:31:02.292Z,15.70
2022-09-25T21:33:29.366Z,15.70
2022-09-25T21:35:56.346Z,15.70
2022-09-25T21:38:23.404Z,15.70
2022-09-25T21:40:50.650Z,15.60
2022-09-25T21:43:17.785Z,15.50
2022-09-25T21:45:45.627Z,15.40
2022-09-25T21:48:13.284Z,15.30
2022-09-25T21:50:40.304Z,15.30
2022-09-25T21:53:07.435Z,15.20
2022-09-25T21:55:34.394Z,15.10
2022-09-25T21:58:01.421Z,15.00
2022-09-25T22:00:28.445Z,14.90
2022-09-25T22:02:55.611Z,14.80
2022-09-25T22:05:22.664Z,14.70
2022-09-25T22:07:49.756Z,14.70
2022-09-25T22:10:16.864Z,14.80
2022-09-25T22:12:43.924Z,14.90
2022-09-25T22:15:12.193Z,14.90
2022-09-25T22:17:39.244Z,14.90
2022-09-25T22:20:06.493Z,14.80
2022-09-25T22:22:33.594Z,14.70
2022-09-25T22:25:00.604Z,14.70
2022-09-25T22:27:27.783Z,14.60
2022-09-25T22:29:54.854Z,14.50
2022-09-25T22:32:21.966Z,14.50
2022-09-25T22:37:30.894Z,14.50
2022-09-25T22:39:57.924Z,14.50
2022-09-25T22:42:24.996Z,14.40
2022-09-25T22:44:52.216Z,14.20
2022-09-25T22:47:19.344Z,14.20
2022-09-25T22:49:46.415Z,14.20
2022-09-25T22:52:13.555Z,14.10
2022-09-25T22:54:40.585Z,14.20
2022-09-25T22:57:07.637Z,14.10
2022-09-25T22:59:34.714Z,14.20
2022-09-25T23:02:01.854Z,14.20
2022-09-25T23:04:28.862Z,14.30
2022-09-25T23:06:58.484Z,14.40
2022-09-25T23:09:26.191Z,14.40
2022-09-25T23:11:56.676Z,14.20
2022-09-25T23:14:28.775Z,14.00
2022-09-25T23:16:56.018Z,13.80
2022-09-25T23:19:23.553Z,13.60
2022-09-25T23:21:51.205Z,13.40
2022-09-25T23:24:18.844Z,13.30
2022-09-25T23:26:46.115Z,13.40
2022-09-25T23:29:14.802Z,13.40
2022-09-25T23:31:46.924Z,13.40
2022-09-25T23:34:14.334Z,13.30
2022-09-25T23:36:41.536Z,13.30
2022-09-25T23:39:09.009Z,13.30
2022-09-25T23:41:37.305Z,13.30
2022-09-25T23:44:05.445Z,13.30
2022-09-25T23:46:33.574Z,13.30
2022-09-25T23:49:01.144Z,13.40
2022-09-25T23:51:28.455Z,13.40
2022-09-25T23:53:56.523Z,13.50
2022-09-25T23:56:24.575Z,13.40
2022-09-25T23:58:52.025Z,13.40
